sensor_id;sensor_type;location;lat;lon;timestamp;P1;durP1;ratioP1;P2;durP2;ratioP2
28192;SDS011;15473;50.840;3.396;2022-07-29T00:01:47;2.40;;;1.60;;
28192;SDS011;15473;50.840;3.396;2022-07-29T00:04:36;3.47;;;1.80;;
28192;SDS011;15473;50.840;3.396;2022-07-29T00:07:22;9.75;;;2.20;;
28192;SDS011;15473;50.840;3.396;2022-07-29T00:10:08;2.17;;;1.80;;
28192;SDS011;15473;50.840;3.396;2022-07-29T00:12:54;3.05;;;1.77;;
28192;SDS011;15473;50.840;3.396;2022-07-29T00:18:26;3.95;;;1.95;;
28192;SDS011;15473;50.840;3.396;2022-07-29T00:21:12;2.40;;;2.02;;
28192;SDS011;15473;50.840;3.396;2022-07-29T00:26:44;2.87;;;1.70;;
28192;SDS011;15473;50.840;3.396;2022-07-29T00:29:30;6.65;;;1.95;;
28192;SDS011;15473;50.840;3.396;2022-07-29T00:35:02;3.42;;;2.40;;
28192;SDS011;15473;50.840;3.396;2022-07-29T00:38:07;2.87;;;2.00;;
28192;SDS011;15473;50.840;3.396;2022-07-29T00:40:53;5.97;;;2.10;;
28192;SDS011;15473;50.840;3.396;2022-07-29T00:43:53;2.58;;;2.10;;
28192;SDS011;15473;50.840;3.396;2022-07-29T00:46:39;1.90;;;1.80;;
28192;SDS011;15473;50.840;3.396;2022-07-29T00:49:25;3.85;;;2.85;;
28192;SDS011;15473;50.840;3.396;2022-07-29T00:52:13;5.47;;;2.42;;
28192;SDS011;15473;50.840;3.396;2022-07-29T00:54:59;3.02;;;1.98;;
28192;SDS011;15473;50.840;3.396;2022-07-29T00:57:46;4.55;;;2.27;;
28192;SDS011;15473;50.840;3.396;2022-07-29T01:00:33;2.92;;;1.90;;
28192;SDS011;15473;50.840;3.396;2022-07-29T01:03:19;3.85;;;2.00;;
28192;SDS011;15473;50.840;3.396;2022-07-29T01:06:05;10.10;;;2.45;;
28192;SDS011;15473;50.840;3.396;2022-07-29T01:08:51;2.47;;;1.98;;
28192;SDS011;15473;50.840;3.396;2022-07-29T01:11:38;5.80;;;2.35;;
28192;SDS011;15473;50.840;3.396;2022-07-29T01:14:24;5.35;;;2.40;;
28192;SDS011;15473;50.840;3.396;2022-07-29T01:17:21;3.25;;;2.12;;
28192;SDS011;15473;50.840;3.396;2022-07-29T01:23:26;5.20;;;2.30;;
28192;SDS011;15473;50.840;3.396;2022-07-29T01:26:22;4.85;;;2.27;;
28192;SDS011;15473;50.840;3.396;2022-07-29T01:29:07;4.25;;;2.65;;
28192;SDS011;15473;50.840;3.396;2022-07-29T01:31:59;4.50;;;2.50;;
28192;SDS011;15473;50.840;3.396;2022-07-29T01:35:03;3.30;;;2.22;;
28192;SDS011;15473;50.840;3.396;2022-07-29T01:41:10;6.03;;;2.50;;
28192;SDS011;15473;50.840;3.396;2022-07-29T01:43:54;5.95;;;2.35;;
28192;SDS011;15473;50.840;3.396;2022-07-29T01:46:52;4.28;;;2.70;;
28192;SDS011;15473;50.840;3.396;2022-07-29T01:49:35;8.48;;;2.70;;
28192;SDS011;15473;50.840;3.396;2022-07-29T01:52:27;5.75;;;2.85;;
28192;SDS011;15473;50.840;3.396;2022-07-29T01:55:13;7.08;;;2.70;;
28192;SDS011;15473;50.840;3.396;2022-07-29T01:58:03;5.10;;;3.08;;
28192;SDS011;15473;50.840;3.396;2022-07-29T02:00:50;4.60;;;2.87;;
28192;SDS011;15473;50.840;3.396;2022-07-29T02:03:39;5.35;;;2.90;;
28192;SDS011;15473;50.840;3.396;2022-07-29T02:06:30;5.10;;;2.90;;
28192;SDS011;15473;50.840;3.396;2022-07-29T02:09:18;7.25;;;2.77;;
28192;SDS011;15473;50.840;3.396;2022-07-29T02:12:06;2.70;;;2.40;;
28192;SDS011;15473;50.840;3.396;2022-07-29T02:14:54;14.18;;;2.80;;
28192;SDS011;15473;50.840;3.396;2022-07-29T02:17:45;6.42;;;3.55;;
28192;SDS011;15473;50.840;3.396;2022-07-29T02:20:33;9.15;;;3.15;;
28192;SDS011;15473;50.840;3.396;2022-07-29T02:23:21;9.70;;;2.95;;
28192;SDS011;15473;50.840;3.396;2022-07-29T02:26:08;6.87;;;3.10;;
28192;SDS011;15473;50.840;3.396;2022-07-29T02:28:55;3.47;;;2.67;;
28192;SDS011;15473;50.840;3.396;2022-07-29T02:31:42;6.95;;;3.08;;
28192;SDS011;15473;50.840;3.396;2022-07-29T02:34:31;4.87;;;3.05;;
28192;SDS011;15473;50.840;3.396;2022-07-29T02:37:21;5.25;;;2.70;;
28192;SDS011;15473;50.840;3.396;2022-07-29T02:40:08;5.80;;;2.90;;
28192;SDS011;15473;50.840;3.396;2022-07-29T02:42:56;2.65;;;2.45;;
28192;SDS011;15473;50.840;3.396;2022-07-29T02:45:44;4.25;;;2.58;;
28192;SDS011;15473;50.840;3.396;2022-07-29T02:48:34;4.92;;;2.72;;
28192;SDS011;15473;50.840;3.396;2022-07-29T02:51:27;9.03;;;2.70;;
28192;SDS011;15473;50.840;3.396;2022-07-29T02:54:28;4.67;;;2.60;;
28192;SDS011;15473;50.840;3.396;2022-07-29T02:57:28;3.27;;;2.80;;
28192;SDS011;15473;50.840;3.396;2022-07-29T03:00:10;7.67;;;2.72;;
28192;SDS011;15473;50.840;3.396;2022-07-29T03:02:59;10.55;;;2.72;;
28192;SDS011;15473;50.840;3.396;2022-07-29T03:05:46;3.00;;;2.67;;
28192;SDS011;15473;50.840;3.396;2022-07-29T03:11:19;3.25;;;2.92;;
28192;SDS011;15473;50.840;3.396;2022-07-29T03:14:06;5.45;;;3.05;;
28192;SDS011;15473;50.840;3.396;2022-07-29T03:16:53;4.47;;;2.37;;
28192;SDS011;15473;50.840;3.396;2022-07-29T03:19:39;4.03;;;3.20;;
28192;SDS011;15473;50.840;3.396;2022-07-29T03:22:26;4.87;;;3.37;;
28192;SDS011;15473;50.840;3.396;2022-07-29T03:25:12;8.53;;;3.50;;
28192;SDS011;15473;50.840;3.396;2022-07-29T03:28:00;4.83;;;3.22;;
28192;SDS011;15473;50.840;3.396;2022-07-29T03:30:46;5.97;;;3.12;;
28192;SDS011;15473;50.840;3.396;2022-07-29T03:36:18;6.62;;;3.40;;
28192;SDS011;15473;50.840;3.396;2022-07-29T03:39:04;4.35;;;3.50;;
28192;SDS011;15473;50.840;3.396;2022-07-29T03:41:54;8.23;;;3.50;;
28192;SDS011;15473;50.840;3.396;2022-07-29T03:44:43;6.60;;;3.55;;
28192;SDS011;15473;50.840;3.396;2022-07-29T03:47:31;5.20;;;3.70;;
28192;SDS011;15473;50.840;3.396;2022-07-29T03:50:20;6.40;;;3.55;;
28192;SDS011;15473;50.840;3.396;2022-07-29T03:53:07;5.55;;;3.85;;
28192;SDS011;15473;50.840;3.396;2022-07-29T03:55:54;8.53;;;3.72;;
28192;SDS011;15473;50.840;3.396;2022-07-29T03:58:42;4.05;;;3.10;;
28192;SDS011;15473;50.840;3.396;2022-07-29T04:01:29;6.00;;;4.30;;
28192;SDS011;15473;50.840;3.396;2022-07-29T04:04:17;14.43;;;4.30;;
28192;SDS011;15473;50.840;3.396;2022-07-29T04:07:04;6.35;;;4.22;;
28192;SDS011;15473;50.840;3.396;2022-07-29T04:09:50;6.97;;;3.65;;
28192;SDS011;15473;50.840;3.396;2022-07-29T04:12:37;6.50;;;3.75;;
28192;SDS011;15473;50.840;3.396;2022-07-29T04:15:23;6.87;;;4.00;;
28192;SDS011;15473;50.840;3.396;2022-07-29T04:18:09;4.62;;;3.35;;
28192;SDS011;15473;50.840;3.396;2022-07-29T04:23:43;9.35;;;4.03;;
28192;SDS011;15473;50.840;3.396;2022-07-29T04:26:30;6.62;;;3.98;;
28192;SDS011;15473;50.840;3.396;2022-07-29T04:29:17;5.85;;;3.10;;
28192;SDS011;15473;50.840;3.396;2022-07-29T04:32:04;7.72;;;4.47;;
28192;SDS011;15473;50.840;3.396;2022-07-29T04:34:51;10.95;;;4.78;;
28192;SDS011;15473;50.840;3.396;2022-07-29T04:37:38;4.40;;;3.40;;
28192;SDS011;15473;50.840;3.396;2022-07-29T04:40:24;5.50;;;3.42;;
28192;SDS011;15473;50.840;3.396;2022-07-29T04:43:11;4.90;;;3.65;;
28192;SDS011;15473;50.840;3.396;2022-07-29T04:45:57;6.15;;;3.95;;
28192;SDS011;15473;50.840;3.396;2022-07-29T04:48:47;8.70;;;4.30;;
28192;SDS011;15473;50.840;3.396;2022-07-29T04:51:34;4.28;;;3.85;;
28192;SDS011;15473;50.840;3.396;2022-07-29T04:54:21;7.12;;;3.83;;
28192;SDS011;15473;50.840;3.396;2022-07-29T04:59:53;3.95;;;3.50;;
28192;SDS011;15473;50.840;3.396;2022-07-29T05:05:25;6.08;;;4.47;;
28192;SDS011;15473;50.840;3.396;2022-07-29T05:08:12;6.92;;;3.70;;
28192;SDS011;15473;50.840;3.396;2022-07-29T05:10:58;6.83;;;4.28;;
28192;SDS011;15473;50.840;3.396;2022-07-29T05:13:49;6.70;;;4.42;;
28192;SDS011;15473;50.840;3.396;2022-07-29T05:16:35;5.58;;;4.05;;
28192;SDS011;15473;50.840;3.396;2022-07-29T05:19:23;5.47;;;4.42;;
28192;SDS011;15473;50.840;3.396;2022-07-29T05:24:55;5.30;;;4.33;;
28192;SDS011;15473;50.840;3.396;2022-07-29T05:27:42;7.78;;;4.25;;
28192;SDS011;15473;50.840;3.396;2022-07-29T05:30:29;6.92;;;5.10;;
28192;SDS011;15473;50.840;3.396;2022-07-29T05:33:15;7.10;;;4.08;;
28192;SDS011;15473;50.840;3.396;2022-07-29T05:36:03;4.72;;;4.20;;
28192;SDS011;15473;50.840;3.396;2022-07-29T05:38:53;6.25;;;4.65;;
28192;SDS011;15473;50.840;3.396;2022-07-29T05:41:39;5.90;;;4.12;;
28192;SDS011;15473;50.840;3.396;2022-07-29T05:44:27;13.38;;;5.35;;
28192;SDS011;15473;50.840;3.396;2022-07-29T05:47:14;7.05;;;4.45;;
28192;SDS011;15473;50.840;3.396;2022-07-29T05:50:00;11.28;;;4.47;;
28192;SDS011;15473;50.840;3.396;2022-07-29T05:55:32;9.88;;;4.83;;
28192;SDS011;15473;50.840;3.396;2022-07-29T05:58:19;10.55;;;4.53;;
28192;SDS011;15473;50.840;3.396;2022-07-29T06:01:05;7.12;;;4.58;;
28192;SDS011;15473;50.840;3.396;2022-07-29T06:03:51;7.35;;;4.75;;
28192;SDS011;15473;50.840;3.396;2022-07-29T06:06:38;7.70;;;5.25;;
28192;SDS011;15473;50.840;3.396;2022-07-29T06:09:24;10.98;;;4.80;;
28192;SDS011;15473;50.840;3.396;2022-07-29T06:12:11;4.97;;;4.00;;
28192;SDS011;15473;50.840;3.396;2022-07-29T06:14:59;6.65;;;4.92;;
28192;SDS011;15473;50.840;3.396;2022-07-29T06:17:45;8.10;;;4.90;;
28192;SDS011;15473;50.840;3.396;2022-07-29T06:20:32;5.35;;;4.08;;
28192;SDS011;15473;50.840;3.396;2022-07-29T06:23:20;8.80;;;4.17;;
28192;SDS011;15473;50.840;3.396;2022-07-29T06:26:06;10.53;;;4.58;;
28192;SDS011;15473;50.840;3.396;2022-07-29T06:28:53;7.03;;;4.08;;
28192;SDS011;15473;50.840;3.396;2022-07-29T06:31:39;6.05;;;3.98;;
28192;SDS011;15473;50.840;3.396;2022-07-29T06:34:26;15.25;;;4.58;;
28192;SDS011;15473;50.840;3.396;2022-07-29T06:37:12;8.53;;;3.90;;
28192;SDS011;15473;50.840;3.396;2022-07-29T06:40:00;5.72;;;3.98;;
28192;SDS011;15473;50.840;3.396;2022-07-29T06:43:04;6.37;;;4.28;;
28192;SDS011;15473;50.840;3.396;2022-07-29T06:45:51;10.43;;;3.72;;
28192;SDS011;15473;50.840;3.396;2022-07-29T06:48:37;5.00;;;3.80;;
28192;SDS011;15473;50.840;3.396;2022-07-29T06:51:26;8.40;;;4.25;;
28192;SDS011;15473;50.840;3.396;2022-07-29T06:54:12;8.00;;;3.98;;
28192;SDS011;15473;50.840;3.396;2022-07-29T06:56:59;7.80;;;4.25;;
28192;SDS011;15473;50.840;3.396;2022-07-29T06:59:45;8.50;;;4.35;;
28192;SDS011;15473;50.840;3.396;2022-07-29T07:02:32;5.00;;;4.50;;
28192;SDS011;15473;50.840;3.396;2022-07-29T07:05:18;7.20;;;4.10;;
28192;SDS011;15473;50.840;3.396;2022-07-29T07:08:05;8.58;;;4.70;;
28192;SDS011;15473;50.840;3.396;2022-07-29T07:10:52;4.58;;;3.75;;
28192;SDS011;15473;50.840;3.396;2022-07-29T07:13:39;5.90;;;4.25;;
28192;SDS011;15473;50.840;3.396;2022-07-29T07:16:26;7.87;;;4.22;;
28192;SDS011;15473;50.840;3.396;2022-07-29T07:19:14;6.30;;;4.33;;
28192;SDS011;15473;50.840;3.396;2022-07-29T07:22:00;8.23;;;4.60;;
28192;SDS011;15473;50.840;3.396;2022-07-29T07:24:47;10.18;;;4.28;;
28192;SDS011;15473;50.840;3.396;2022-07-29T07:27:33;6.05;;;4.15;;
28192;SDS011;15473;50.840;3.396;2022-07-29T07:30:19;11.65;;;3.80;;
28192;SDS011;15473;50.840;3.396;2022-07-29T07:33:06;7.28;;;4.62;;
28192;SDS011;15473;50.840;3.396;2022-07-29T07:35:59;10.80;;;3.98;;
28192;SDS011;15473;50.840;3.396;2022-07-29T07:38:45;6.45;;;3.90;;
28192;SDS011;15473;50.840;3.396;2022-07-29T07:41:32;5.55;;;3.50;;
28192;SDS011;15473;50.840;3.396;2022-07-29T07:44:18;12.47;;;3.65;;
28192;SDS011;15473;50.840;3.396;2022-07-29T07:47:05;5.42;;;3.37;;
28192;SDS011;15473;50.840;3.396;2022-07-29T07:49:51;5.60;;;3.87;;
28192;SDS011;15473;50.840;3.396;2022-07-29T07:52:51;6.83;;;3.65;;
28192;SDS011;15473;50.840;3.396;2022-07-29T07:55:40;5.55;;;3.58;;
28192;SDS011;15473;50.840;3.396;2022-07-29T07:58:28;8.40;;;4.30;;
28192;SDS011;15473;50.840;3.396;2022-07-29T08:01:14;6.33;;;3.72;;
28192;SDS011;15473;50.840;3.396;2022-07-29T08:04:02;10.15;;;4.15;;
28192;SDS011;15473;50.840;3.396;2022-07-29T08:06:48;6.67;;;3.98;;
28192;SDS011;15473;50.840;3.396;2022-07-29T08:09:35;5.70;;;3.58;;
28192;SDS011;15473;50.840;3.396;2022-07-29T08:12:22;8.38;;;4.67;;
28192;SDS011;15473;50.840;3.396;2022-07-29T08:15:08;13.05;;;4.92;;
28192;SDS011;15473;50.840;3.396;2022-07-29T08:17:54;7.28;;;3.98;;
28192;SDS011;15473;50.840;3.396;2022-07-29T08:20:41;9.13;;;4.65;;
28192;SDS011;15473;50.840;3.396;2022-07-29T08:23:27;8.03;;;5.25;;
28192;SDS011;15473;50.840;3.396;2022-07-29T08:26:15;8.13;;;4.90;;
28192;SDS011;15473;50.840;3.396;2022-07-29T08:29:01;7.62;;;4.58;;
28192;SDS011;15473;50.840;3.396;2022-07-29T08:31:48;12.03;;;4.87;;
28192;SDS011;15473;50.840;3.396;2022-07-29T08:34:34;13.20;;;5.62;;
28192;SDS011;15473;50.840;3.396;2022-07-29T08:37:21;8.40;;;5.37;;
28192;SDS011;15473;50.840;3.396;2022-07-29T08:40:08;14.25;;;5.53;;
28192;SDS011;15473;50.840;3.396;2022-07-29T08:42:55;16.27;;;4.42;;
28192;SDS011;15473;50.840;3.396;2022-07-29T08:45:42;15.93;;;5.20;;
28192;SDS011;15473;50.840;3.396;2022-07-29T08:48:30;16.35;;;5.20;;
28192;SDS011;15473;50.840;3.396;2022-07-29T08:51:18;18.62;;;4.80;;
28192;SDS011;15473;50.840;3.396;2022-07-29T08:54:06;13.08;;;5.20;;
28192;SDS011;15473;50.840;3.396;2022-07-29T08:56:54;12.53;;;5.20;;
28192;SDS011;15473;50.840;3.396;2022-07-29T08:59:42;13.68;;;5.15;;
28192;SDS011;15473;50.840;3.396;2022-07-29T09:02:32;10.35;;;5.20;;
28192;SDS011;15473;50.840;3.396;2022-07-29T09:05:19;12.65;;;4.10;;
28192;SDS011;15473;50.840;3.396;2022-07-29T09:08:05;10.60;;;5.62;;
28192;SDS011;15473;50.840;3.396;2022-07-29T09:10:52;9.05;;;3.87;;
28192;SDS011;15473;50.840;3.396;2022-07-29T09:13:41;6.25;;;3.80;;
28192;SDS011;15473;50.840;3.396;2022-07-29T09:19:36;7.58;;;3.95;;
28192;SDS011;15473;50.840;3.396;2022-07-29T09:22:28;7.72;;;4.08;;
28192;SDS011;15473;50.840;3.396;2022-07-29T09:25:31;5.92;;;3.40;;
28192;SDS011;15473;50.840;3.396;2022-07-29T09:28:23;9.35;;;3.35;;
28192;SDS011;15473;50.840;3.396;2022-07-29T09:31:09;5.92;;;3.42;;
28192;SDS011;15473;50.840;3.396;2022-07-29T09:33:56;7.15;;;3.42;;
28192;SDS011;15473;50.840;3.396;2022-07-29T09:36:46;4.85;;;3.42;;
28192;SDS011;15473;50.840;3.396;2022-07-29T09:39:37;4.60;;;3.80;;
28192;SDS011;15473;50.840;3.396;2022-07-29T09:42:44;5.87;;;3.65;;
28192;SDS011;15473;50.840;3.396;2022-07-29T09:45:32;8.38;;;3.62;;
28192;SDS011;15473;50.840;3.396;2022-07-29T09:48:20;6.72;;;3.25;;
28192;SDS011;15473;50.840;3.396;2022-07-29T09:51:18;7.65;;;3.10;;
28192;SDS011;15473;50.840;3.396;2022-07-29T09:54:39;8.25;;;2.87;;
28192;SDS011;15473;50.840;3.396;2022-07-29T09:57:21;8.43;;;3.33;;
28192;SDS011;15473;50.840;3.396;2022-07-29T10:02:58;4.47;;;2.42;;
28192;SDS011;15473;50.840;3.396;2022-07-29T10:06:03;3.60;;;2.75;;
28192;SDS011;15473;50.840;3.396;2022-07-29T10:11:39;5.37;;;2.40;;
28192;SDS011;15473;50.840;3.396;2022-07-29T10:14:26;5.30;;;2.20;;
28192;SDS011;15473;50.840;3.396;2022-07-29T10:17:12;6.05;;;2.40;;
28192;SDS011;15473;50.840;3.396;2022-07-29T10:19:59;6.92;;;3.22;;
28192;SDS011;15473;50.840;3.396;2022-07-29T10:22:46;4.37;;;2.62;;
28192;SDS011;15473;50.840;3.396;2022-07-29T10:25:33;5.75;;;2.67;;
28192;SDS011;15473;50.840;3.396;2022-07-29T10:28:21;3.20;;;2.52;;
28192;SDS011;15473;50.840;3.396;2022-07-29T10:31:11;2.37;;;1.90;;
28192;SDS011;15473;50.840;3.396;2022-07-29T10:34:13;4.50;;;1.92;;
28192;SDS011;15473;50.840;3.396;2022-07-29T10:37:20;8.13;;;2.27;;
28192;SDS011;15473;50.840;3.396;2022-07-29T10:40:24;7.03;;;2.65;;
28192;SDS011;15473;50.840;3.396;2022-07-29T10:43:44;4.17;;;2.05;;
28192;SDS011;15473;50.840;3.396;2022-07-29T10:46:37;3.67;;;2.00;;
28192;SDS011;15473;50.840;3.396;2022-07-29T10:49:25;6.12;;;2.05;;
28192;SDS011;15473;50.840;3.396;2022-07-29T10:55:40;3.35;;;2.12;;
28192;SDS011;15473;50.840;3.396;2022-07-29T10:58:31;2.72;;;2.17;;
28192;SDS011;15473;50.840;3.396;2022-07-29T11:01:28;5.10;;;2.35;;
28192;SDS011;15473;50.840;3.396;2022-07-29T11:04:16;5.50;;;2.22;;
28192;SDS011;15473;50.840;3.396;2022-07-29T11:13:04;6.97;;;2.87;;
28192;SDS011;15473;50.840;3.396;2022-07-29T11:15:57;9.55;;;2.30;;
28192;SDS011;15473;50.840;3.396;2022-07-29T11:21:59;10.38;;;3.27;;
28192;SDS011;15473;50.840;3.396;2022-07-29T11:27:35;12.70;;;2.10;;
28192;SDS011;15473;50.840;3.396;2022-07-29T11:30:45;5.87;;;2.75;;
28192;SDS011;15473;50.840;3.396;2022-07-29T11:33:31;2.20;;;2.00;;
28192;SDS011;15473;50.840;3.396;2022-07-29T11:36:18;9.13;;;2.20;;
28192;SDS011;15473;50.840;3.396;2022-07-29T11:45:10;6.12;;;2.50;;
28192;SDS011;15473;50.840;3.396;2022-07-29T11:47:58;5.08;;;2.45;;
28192;SDS011;15473;50.840;3.396;2022-07-29T11:50:45;5.08;;;1.85;;
28192;SDS011;15473;50.840;3.396;2022-07-29T11:53:32;4.30;;;2.40;;
28192;SDS011;15473;50.840;3.396;2022-07-29T11:56:21;5.40;;;2.00;;
28192;SDS011;15473;50.840;3.396;2022-07-29T11:59:08;6.30;;;2.02;;
28192;SDS011;15473;50.840;3.396;2022-07-29T12:01:57;10.43;;;3.00;;
28192;SDS011;15473;50.840;3.396;2022-07-29T12:04:50;3.50;;;2.37;;
28192;SDS011;15473;50.840;3.396;2022-07-29T12:07:37;5.40;;;2.98;;
28192;SDS011;15473;50.840;3.396;2022-07-29T12:10:29;3.75;;;2.75;;
28192;SDS011;15473;50.840;3.396;2022-07-29T12:13:17;6.12;;;2.50;;
28192;SDS011;15473;50.840;3.396;2022-07-29T12:16:04;4.35;;;2.98;;
28192;SDS011;15473;50.840;3.396;2022-07-29T12:18:59;3.42;;;2.00;;
28192;SDS011;15473;50.840;3.396;2022-07-29T12:21:48;3.17;;;2.37;;
28192;SDS011;15473;50.840;3.396;2022-07-29T12:24:43;5.03;;;2.33;;
28192;SDS011;15473;50.840;3.396;2022-07-29T12:27:30;3.02;;;2.05;;
28192;SDS011;15473;50.840;3.396;2022-07-29T12:30:17;3.95;;;2.42;;
28192;SDS011;15473;50.840;3.396;2022-07-29T12:33:09;5.15;;;2.40;;
28192;SDS011;15473;50.840;3.396;2022-07-29T12:36:05;4.83;;;2.08;;
28192;SDS011;15473;50.840;3.396;2022-07-29T12:38:52;2.65;;;2.27;;
28192;SDS011;15473;50.840;3.396;2022-07-29T12:41:38;3.25;;;2.05;;
28192;SDS011;15473;50.840;3.396;2022-07-29T12:44:25;4.37;;;2.25;;
28192;SDS011;15473;50.840;3.396;2022-07-29T12:47:14;4.78;;;2.22;;
28192;SDS011;15473;50.840;3.396;2022-07-29T12:50:12;6.67;;;2.30;;
28192;SDS011;15473;50.840;3.396;2022-07-29T12:53:11;5.00;;;2.12;;
28192;SDS011;15473;50.840;3.396;2022-07-29T12:55:58;2.20;;;2.00;;
28192;SDS011;15473;50.840;3.396;2022-07-29T12:58:46;7.22;;;3.08;;
28192;SDS011;15473;50.840;3.396;2022-07-29T13:01:36;4.15;;;2.15;;
28192;SDS011;15473;50.840;3.396;2022-07-29T13:04:41;3.37;;;1.75;;
28192;SDS011;15473;50.840;3.396;2022-07-29T13:07:28;3.52;;;2.42;;
28192;SDS011;15473;50.840;3.396;2022-07-29T13:10:17;3.10;;;1.90;;
28192;SDS011;15473;50.840;3.396;2022-07-29T13:13:09;6.58;;;2.30;;
28192;SDS011;15473;50.840;3.396;2022-07-29T13:16:06;2.55;;;1.90;;
28192;SDS011;15473;50.840;3.396;2022-07-29T13:21:49;8.05;;;2.52;;
28192;SDS011;15473;50.840;3.396;2022-07-29T13:24:45;4.05;;;2.10;;
28192;SDS011;15473;50.840;3.396;2022-07-29T13:27:34;2.87;;;2.00;;
28192;SDS011;15473;50.840;3.396;2022-07-29T13:30:22;2.30;;;2.05;;
28192;SDS011;15473;50.840;3.396;2022-07-29T13:33:09;3.65;;;1.90;;
28192;SDS011;15473;50.840;3.396;2022-07-29T13:35:55;5.67;;;2.40;;
28192;SDS011;15473;50.840;3.396;2022-07-29T13:38:42;5.47;;;2.75;;
28192;SDS011;15473;50.840;3.396;2022-07-29T13:41:28;3.20;;;1.72;;
28192;SDS011;15473;50.840;3.396;2022-07-29T13:44:15;2.65;;;2.22;;
28192;SDS011;15473;50.840;3.396;2022-07-29T13:47:01;3.37;;;2.15;;
28192;SDS011;15473;50.840;3.396;2022-07-29T13:49:48;3.77;;;1.80;;
28192;SDS011;15473;50.840;3.396;2022-07-29T13:52:34;3.90;;;2.67;;
28192;SDS011;15473;50.840;3.396;2022-07-29T13:55:22;2.35;;;2.00;;
28192;SDS011;15473;50.840;3.396;2022-07-29T13:58:08;4.17;;;2.50;;
28192;SDS011;15473;50.840;3.396;2022-07-29T14:00:55;4.12;;;2.37;;
28192;SDS011;15473;50.840;3.396;2022-07-29T14:03:41;4.08;;;1.98;;
28192;SDS011;15473;50.840;3.396;2022-07-29T14:06:28;2.17;;;2.00;;
28192;SDS011;15473;50.840;3.396;2022-07-29T14:09:14;19.50;;;2.80;;
28192;SDS011;15473;50.840;3.396;2022-07-29T14:12:01;5.30;;;2.40;;
28192;SDS011;15473;50.840;3.396;2022-07-29T14:14:47;4.12;;;2.05;;
28192;SDS011;15473;50.840;3.396;2022-07-29T14:17:33;3.98;;;1.67;;
28192;SDS011;15473;50.840;3.396;2022-07-29T14:20:19;2.87;;;2.60;;
28192;SDS011;15473;50.840;3.396;2022-07-29T14:23:05;2.85;;;2.00;;
28192;SDS011;15473;50.840;3.396;2022-07-29T14:25:52;6.90;;;2.62;;
28192;SDS011;15473;50.840;3.396;2022-07-29T14:28:38;4.75;;;2.37;;
28192;SDS011;15473;50.840;3.396;2022-07-29T14:34:09;6.17;;;1.90;;
28192;SDS011;15473;50.840;3.396;2022-07-29T14:36:56;3.80;;;2.15;;
28192;SDS011;15473;50.840;3.396;2022-07-29T14:39:42;5.15;;;2.27;;
28192;SDS011;15473;50.840;3.396;2022-07-29T14:42:28;2.62;;;1.90;;
28192;SDS011;15473;50.840;3.396;2022-07-29T14:45:18;4.08;;;1.72;;
28192;SDS011;15473;50.840;3.396;2022-07-29T14:48:05;2.60;;;2.30;;
28192;SDS011;15473;50.840;3.396;2022-07-29T14:50:51;7.17;;;2.80;;
28192;SDS011;15473;50.840;3.396;2022-07-29T14:53:39;3.25;;;2.15;;
28192;SDS011;15473;50.840;3.396;2022-07-29T14:56:27;3.47;;;1.87;;
28192;SDS011;15473;50.840;3.396;2022-07-29T14:59:14;9.95;;;2.42;;
28192;SDS011;15473;50.840;3.396;2022-07-29T15:02:00;4.28;;;2.20;;
28192;SDS011;15473;50.840;3.396;2022-07-29T15:04:47;4.17;;;2.35;;
28192;SDS011;15473;50.840;3.396;2022-07-29T15:07:33;4.65;;;2.33;;
28192;SDS011;15473;50.840;3.396;2022-07-29T15:10:20;3.87;;;2.58;;
28192;SDS011;15473;50.840;3.396;2022-07-29T15:13:06;2.65;;;2.20;;
28192;SDS011;15473;50.840;3.396;2022-07-29T15:15:53;3.30;;;2.55;;
28192;SDS011;15473;50.840;3.396;2022-07-29T15:18:39;8.93;;;2.92;;
28192;SDS011;15473;50.840;3.396;2022-07-29T15:21:26;3.10;;;2.00;;
28192;SDS011;15473;50.840;3.396;2022-07-29T15:24:12;9.13;;;2.25;;
28192;SDS011;15473;50.840;3.396;2022-07-29T15:26:59;4.30;;;2.12;;
28192;SDS011;15473;50.840;3.396;2022-07-29T15:29:45;5.72;;;2.25;;
28192;SDS011;15473;50.840;3.396;2022-07-29T15:32:31;23.77;;;2.90;;
28192;SDS011;15473;50.840;3.396;2022-07-29T15:35:17;4.53;;;2.20;;
28192;SDS011;15473;50.840;3.396;2022-07-29T15:38:03;4.50;;;2.25;;
28192;SDS011;15473;50.840;3.396;2022-07-29T15:43:57;4.67;;;2.12;;
28192;SDS011;15473;50.840;3.396;2022-07-29T15:46:43;4.45;;;2.10;;
28192;SDS011;15473;50.840;3.396;2022-07-29T15:49:50;6.15;;;2.20;;
28192;SDS011;15473;50.840;3.396;2022-07-29T15:52:36;10.15;;;2.20;;
28192;SDS011;15473;50.840;3.396;2022-07-29T15:55:22;2.77;;;2.30;;
28192;SDS011;15473;50.840;3.396;2022-07-29T15:58:09;5.58;;;2.62;;
28192;SDS011;15473;50.840;3.396;2022-07-29T16:00:55;4.95;;;3.05;;
28192;SDS011;15473;50.840;3.396;2022-07-29T16:03:42;3.67;;;2.30;;
28192;SDS011;15473;50.840;3.396;2022-07-29T16:06:28;5.00;;;2.35;;
28192;SDS011;15473;50.840;3.396;2022-07-29T16:09:15;3.40;;;2.30;;
28192;SDS011;15473;50.840;3.396;2022-07-29T16:12:02;3.00;;;1.87;;
28192;SDS011;15473;50.840;3.396;2022-07-29T16:14:49;6.67;;;2.20;;
28192;SDS011;15473;50.840;3.396;2022-07-29T16:17:35;4.83;;;2.30;;
28192;SDS011;15473;50.840;3.396;2022-07-29T16:20:23;6.67;;;2.42;;
28192;SDS011;15473;50.840;3.396;2022-07-29T16:23:10;3.05;;;1.85;;
28192;SDS011;15473;50.840;3.396;2022-07-29T16:25:56;4.70;;;2.30;;
28192;SDS011;15473;50.840;3.396;2022-07-29T16:28:42;3.40;;;1.92;;
28192;SDS011;15473;50.840;3.396;2022-07-29T16:31:29;6.15;;;2.05;;
28192;SDS011;15473;50.840;3.396;2022-07-29T16:37:01;1.87;;;1.67;;
28192;SDS011;15473;50.840;3.396;2022-07-29T16:39:48;84.85;;;5.72;;
28192;SDS011;15473;50.840;3.396;2022-07-29T16:42:34;2.85;;;1.77;;
28192;SDS011;15473;50.840;3.396;2022-07-29T16:45:21;5.10;;;2.02;;
28192;SDS011;15473;50.840;3.396;2022-07-29T16:48:07;2.67;;;1.92;;
28192;SDS011;15473;50.840;3.396;2022-07-29T16:50:53;5.70;;;2.08;;
28192;SDS011;15473;50.840;3.396;2022-07-29T16:53:40;4.33;;;2.45;;
28192;SDS011;15473;50.840;3.396;2022-07-29T16:56:26;2.65;;;1.70;;
28192;SDS011;15473;50.840;3.396;2022-07-29T16:59:12;6.50;;;2.27;;
28192;SDS011;15473;50.840;3.396;2022-07-29T17:01:58;2.35;;;1.72;;
28192;SDS011;15473;50.840;3.396;2022-07-29T17:04:48;6.25;;;2.10;;
28192;SDS011;15473;50.840;3.396;2022-07-29T17:07:34;4.15;;;1.82;;
28192;SDS011;15473;50.840;3.396;2022-07-29T17:10:20;2.37;;;2.00;;
28192;SDS011;15473;50.840;3.396;2022-07-29T17:13:08;4.62;;;1.77;;
28192;SDS011;15473;50.840;3.396;2022-07-29T17:15:54;8.18;;;2.45;;
28192;SDS011;15473;50.840;3.396;2022-07-29T17:18:40;5.15;;;2.10;;
28192;SDS011;15473;50.840;3.396;2022-07-29T17:21:27;6.10;;;2.30;;
28192;SDS011;15473;50.840;3.396;2022-07-29T17:24:13;2.50;;;2.30;;
28192;SDS011;15473;50.840;3.396;2022-07-29T17:29:45;7.37;;;1.85;;
28192;SDS011;15473;50.840;3.396;2022-07-29T17:32:31;12.50;;;2.80;;
28192;SDS011;15473;50.840;3.396;2022-07-29T17:35:19;3.52;;;2.00;;
28192;SDS011;15473;50.840;3.396;2022-07-29T17:38:24;5.72;;;2.00;;
28192;SDS011;15473;50.840;3.396;2022-07-29T17:41:10;3.85;;;2.00;;
28192;SDS011;15473;50.840;3.396;2022-07-29T17:43:56;7.75;;;2.50;;
28192;SDS011;15473;50.840;3.396;2022-07-29T17:46:43;4.03;;;2.17;;
28192;SDS011;15473;50.840;3.396;2022-07-29T17:49:29;5.72;;;2.50;;
28192;SDS011;15473;50.840;3.396;2022-07-29T17:52:16;2.40;;;2.20;;
28192;SDS011;15473;50.840;3.396;2022-07-29T17:55:03;3.50;;;1.92;;
28192;SDS011;15473;50.840;3.396;2022-07-29T17:57:49;3.87;;;2.15;;
28192;SDS011;15473;50.840;3.396;2022-07-29T18:00:36;9.33;;;2.05;;
28192;SDS011;15473;50.840;3.396;2022-07-29T18:03:22;6.08;;;2.10;;
28192;SDS011;15473;50.840;3.396;2022-07-29T18:06:09;3.17;;;1.80;;
28192;SDS011;15473;50.840;3.396;2022-07-29T18:08:55;2.75;;;2.40;;
28192;SDS011;15473;50.840;3.396;2022-07-29T18:11:42;6.20;;;2.08;;